Time;durP1;ratioP1;P1;durP2;ratioP2;P2;SDS_P1;SDS_P2;PMS_P1;PMS_P2;Temp;Humidity;BMP_temperature;BMP_pressure;BME280_temperature;BME280_humidity;BME280_pressure;Samples;Min_cycle;Max_cycle;Signal;HPM_P1;HPM_P2
2021/12/18 00:01:42;;;;;;;6.53;2.90;;;5.00;99.90;;;;;;5114489;28;20472;-61
2021/12/18 00:04:09;;;;;;;8.10;3.10;;;4.80;99.90;;;;;;5114297;28;20899;-61
2021/12/18 00:06:38;;;;;;;6.67;3.07;;;4.70;99.90;;;;;;5115007;28;20823;-60
2021/12/18 00:09:08;;;;;;;8.47;4.03;;;4.60;99.90;;;;;;5115705;28;20485;-61
2021/12/18 00:11:37;;;;;;;6.20;3.63;;;4.60;99.90;;;;;;5114996;28;20451;-60
2021/12/18 00:14:07;;;;;;;7.33;2.70;;;4.80;99.90;;;;;;5117025;28;20576;-61
2021/12/18 00:16:34;;;;;;;6.60;3.37;;;4.80;99.90;;;;;;5116855;28;20527;-60
2021/12/18 00:19:03;;;;;;;7.37;3.83;;;4.80;99.90;;;;;;5117524;28;20883;-60
2021/12/18 00:21:30;;;;;;;10.27;4.67;;;4.80;99.90;;;;;;5116906;28;20473;-60
2021/12/18 00:23:57;;;;;;;16.00;4.03;;;4.60;99.90;;;;;;5116757;28;20747;-61
2021/12/18 00:26:28;;;;;;;9.70;4.17;;;4.70;99.90;;;;;;5116298;28;20468;-61
2021/12/18 00:28:56;;;;;;;8.57;3.23;;;4.70;99.90;;;;;;5117216;28;20524;-60
2021/12/18 00:31:23;;;;;;;5.00;3.13;;;4.80;99.90;;;;;;5116798;28;20465;-61
2021/12/18 00:33:50;;;;;;;6.03;3.63;;;4.90;99.90;;;;;;5115639;28;20828;-61
2021/12/18 00:36:20;;;;;;;6.80;2.93;;;4.90;99.90;;;;;;5116214;28;20823;-60
2021/12/18 00:38:47;;;;;;;8.80;3.87;;;4.90;99.90;;;;;;5115305;28;20935;-60
2021/12/18 00:41:27;;;;;;;9.37;3.43;;;4.90;99.90;;;;;;5114764;28;20692;-61
2021/12/18 00:44:12;;;;;;;5.03;2.70;;;5.00;99.90;;;;;;5115874;28;20454;-60
2021/12/18 00:46:43;;;;;;;7.27;3.53;;;5.10;99.90;;;;;;5115502;28;20448;-61
2021/12/18 00:49:13;;;;;;;6.70;3.17;;;5.10;99.90;;;;;;5115249;28;20492;-61
2021/12/18 00:51:43;;;;;;;5.87;2.83;;;5.10;99.90;;;;;;5115261;28;20497;-60
2021/12/18 00:54:10;;;;;;;6.60;3.10;;;5.20;99.90;;;;;;5117176;28;20452;-60
2021/12/18 00:56:40;;;;;;;7.00;2.97;;;5.10;99.90;;;;;;5116931;28;20452;-60
2021/12/18 00:59:08;;;;;;;6.57;3.30;;;5.00;99.90;;;;;;5115905;28;20464;-60
2021/12/18 01:01:36;;;;;;;7.53;3.27;;;5.00;99.90;;;;;;5115924;28;20735;-61
2021/12/18 01:04:03;;;;;;;8.20;3.57;;;4.90;99.90;;;;;;5115259;28;20456;-60
2021/12/18 01:06:30;;;;;;;8.83;3.63;;;5.00;99.90;;;;;;5115025;28;20944;-60
2021/12/18 01:08:57;;;;;;;9.60;3.67;;;5.00;99.90;;;;;;5114620;28;20575;-60
2021/12/18 01:11:40;;;;;;;3.50;2.27;;;5.00;99.90;;;;;;5114273;28;20456;-61
2021/12/18 01:14:34;;;;;;;7.77;2.53;;;4.90;99.90;;;;;;5114558;28;20514;-61
2021/12/18 01:22:49;;;;;;;6.67;3.03;;;4.60;99.90;;;;;;5113486;28;20574;-60
2021/12/18 01:25:19;;;;;;;8.07;3.50;;;4.50;99.90;;;;;;5113124;28;20441;-61
2021/12/18 01:27:46;;;;;;;6.13;3.00;;;4.50;99.90;;;;;;5113497;28;20485;-61
2021/12/18 01:30:17;;;;;;;5.83;2.70;;;4.30;99.90;;;;;;5116189;28;20487;-61
2021/12/18 01:32:45;;;;;;;8.23;4.87;;;4.40;99.90;;;;;;5115132;28;20452;-60
2021/12/18 01:35:12;;;;;;;4.17;1.80;;;4.30;99.90;;;;;;5115895;28;20455;-61
2021/12/18 01:37:41;;;;;;;5.60;2.33;;;4.20;99.90;;;;;;5114299;28;20448;-60
2021/12/18 01:40:09;;;;;;;5.60;2.47;;;4.20;99.90;;;;;;5113697;28;20456;-61
2021/12/18 01:45:33;;;;;;;6.53;2.00;;;4.40;99.90;;;;;;5113738;28;20420;-61
2021/12/18 01:53:29;;;;;;;7.00;3.20;;;4.20;99.90;;;;;;5114956;28;20790;-61
2021/12/18 01:55:56;;;;;;;8.13;3.27;;;4.20;99.90;;;;;;5114576;28;20816;-61
2021/12/18 01:58:24;;;;;;;5.90;2.17;;;4.20;99.90;;;;;;5115986;28;20544;-61
2021/12/18 02:00:54;;;;;;;10.37;4.43;;;4.30;99.90;;;;;;5116956;28;20476;-61
2021/12/18 02:03:22;;;;;;;7.50;2.87;;;4.30;99.90;;;;;;5115695;28;20441;-61
2021/12/18 02:05:50;;;;;;;10.13;2.07;;;4.50;99.90;;;;;;5115317;28;20483;-61
2021/12/18 02:08:20;;;;;;;7.60;3.50;;;4.40;99.90;;;;;;5115614;28;20575;-61
2021/12/18 02:10:51;;;;;;;9.17;3.50;;;4.50;99.90;;;;;;5115847;28;20538;-61
2021/12/18 02:13:25;;;;;;;8.50;4.23;;;4.60;99.90;;;;;;5113792;28;20752;-61
2021/12/18 02:21:27;;;;;;;6.00;3.90;;;4.60;99.90;;;;;;5113045;28;20468;-61
2021/12/18 02:23:54;;;;;;;7.50;2.77;;;4.40;99.90;;;;;;5113302;28;20448;-61
2021/12/18 02:26:22;;;;;;;6.97;3.43;;;4.30;99.90;;;;;;5117874;28;20540;-61
2021/12/18 02:28:51;;;;;;;7.60;3.33;;;4.40;99.90;;;;;;5119542;28;20484;-61
2021/12/18 02:31:19;;;;;;;7.73;3.90;;;4.50;99.90;;;;;;5119900;28;20460;-61
2021/12/18 02:33:46;;;;;;;7.60;2.37;;;4.60;99.90;;;;;;5119642;28;20448;-61
2021/12/18 02:36:22;;;;;;;8.13;4.10;;;4.60;99.90;;;;;;5119633;28;20739;-62
2021/12/18 02:39:05;;;;;;;9.70;3.63;;;4.50;99.90;;;;;;5119330;28;20451;-61
2021/12/18 02:41:35;;;;;;;8.17;4.07;;;4.40;99.90;;;;;;5119466;28;20455;-61
2021/12/18 02:44:04;;;;;;;7.47;2.77;;;4.40;99.90;;;;;;5118819;28;20594;-61
2021/12/18 02:46:31;;;;;;;8.33;2.83;;;4.40;99.90;;;;;;5118977;28;20818;-61
2021/12/18 02:49:07;;;;;;;8.50;2.63;;;4.30;99.90;;;;;;5118072;28;20484;-61
2021/12/18 02:51:34;;;;;;;10.23;4.20;;;4.20;99.90;;;;;;5117954;28;20440;-61
2021/12/18 02:54:03;;;;;;;9.30;2.97;;;4.40;99.90;;;;;;5118457;28;20950;-61
2021/12/18 02:56:30;;;;;;;6.77;3.80;;;4.50;99.90;;;;;;5118447;28;20491;-61
2021/12/18 02:59:04;;;;;;;11.33;4.33;;;4.50;99.90;;;;;;5118077;28;20469;-61
2021/12/18 03:01:32;;;;;;;6.80;2.70;;;4.40;99.90;;;;;;5118593;28;20475;-61
2021/12/18 03:04:01;;;;;;;5.87;2.80;;;4.50;99.90;;;;;;5118312;28;20826;-61
2021/12/18 03:06:33;;;;;;;6.97;2.70;;;4.50;99.90;;;;;;5118790;28;20444;-61
2021/12/18 03:09:19;;;;;;;7.03;2.40;;;4.50;99.90;;;;;;5117834;28;20484;-61
2021/12/18 03:25:29;;;;;;;7.77;2.43;;;3.80;99.90;;;;;;5117373;28;20515;-61
2021/12/18 03:27:58;;;;;;;10.13;3.30;;;3.70;99.90;;;;;;5117638;28;20456;-61
2021/12/18 03:30:25;;;;;;;9.10;3.20;;;3.80;99.90;;;;;;5116528;28;20445;-61
2021/12/18 03:32:52;;;;;;;9.87;3.80;;;3.90;99.90;;;;;;5117732;28;20551;-61
2021/12/18 03:35:20;;;;;;;5.37;2.70;;;4.00;99.90;;;;;;5117668;28;20951;-61
2021/12/18 03:37:47;;;;;;;9.40;2.80;;;3.90;99.90;;;;;;5117591;28;20522;-61
2021/12/18 03:40:17;;;;;;;9.43;3.57;;;3.80;99.90;;;;;;5117096;28;20441;-61
2021/12/18 03:42:46;;;;;;;9.10;3.57;;;3.70;99.90;;;;;;5118200;28;20846;-61
2021/12/18 03:45:15;;;;;;;4.30;2.23;;;3.60;99.90;;;;;;5117651;28;20536;-61
2021/12/18 03:47:42;;;;;;;4.90;2.30;;;3.70;99.90;;;;;;5116827;28;20539;-60
2021/12/18 03:50:10;;;;;;;6.70;2.00;;;3.70;99.90;;;;;;5116361;28;20870;-61
2021/12/18 03:52:37;;;;;;;6.80;2.73;;;3.80;99.90;;;;;;5115859;28;20567;-61
2021/12/18 03:55:06;;;;;;;5.73;1.90;;;3.70;99.90;;;;;;5115773;28;20811;-61
2021/12/18 03:57:33;;;;;;;5.57;2.40;;;3.80;99.90;;;;;;5115805;28;20526;-60
2021/12/18 04:00:01;;;;;;;9.20;3.10;;;3.90;99.90;;;;;;5114513;28;20527;-61
2021/12/18 04:02:28;;;;;;;11.20;3.50;;;3.90;99.90;;;;;;5116358;28;20451;-60
2021/12/18 04:04:55;;;;;;;5.77;2.90;;;3.80;99.90;;;;;;5116355;28;20528;-61
2021/12/18 04:07:22;;;;;;;7.70;2.60;;;3.90;99.90;;;;;;5116539;28;20582;-59
2021/12/18 04:09:49;;;;;;;7.47;3.43;;;4.00;99.90;;;;;;5117991;28;20555;-60
2021/12/18 04:12:16;;;;;;;6.87;3.33;;;3.90;99.90;;;;;;5117589;28;20479;-58
2021/12/18 04:14:43;;;;;;;7.83;3.03;;;3.80;99.90;;;;;;5117673;28;20807;-60
2021/12/18 04:17:11;;;;;;;11.27;3.27;;;3.70;99.90;;;;;;5117652;28;20487;-60
2021/12/18 04:19:38;;;;;;;5.63;2.17;;;3.70;99.90;;;;;;5117821;28;20527;-59
2021/12/18 04:22:05;;;;;;;10.10;2.70;;;3.90;99.90;;;;;;5117031;28;20857;-60
2021/12/18 04:24:32;;;;;;;5.77;2.00;;;4.10;99.90;;;;;;5117319;28;20848;-60
2021/12/18 04:26:59;;;;;;;5.37;2.00;;;4.20;99.90;;;;;;5117446;28;20484;-60
2021/12/18 04:29:26;;;;;;;7.10;3.27;;;4.10;99.90;;;;;;5117331;28;20575;-60
2021/12/18 04:31:53;;;;;;;8.50;2.20;;;3.90;99.90;;;;;;5117238;28;20550;-60
2021/12/18 04:34:21;;;;;;;10.03;2.73;;;3.70;99.90;;;;;;5117258;28;20543;-60
2021/12/18 04:36:48;;;;;;;9.93;2.80;;;3.70;99.90;;;;;;5116020;28;20952;-60
2021/12/18 04:39:15;;;;;;;6.40;2.50;;;3.80;99.90;;;;;;5116427;28;20535;-60
2021/12/18 04:41:47;;;;;;;6.60;2.23;;;4.00;99.90;;;;;;5116090;28;20500;-60
2021/12/18 04:44:14;;;;;;;6.60;1.60;;;3.80;99.90;;;;;;5115864;28;20457;-60
2021/12/18 04:46:41;;;;;;;7.57;3.20;;;3.50;99.90;;;;;;5115445;28;20531;-60
2021/12/18 04:49:09;;;;;;;6.87;2.07;;;3.40;99.90;;;;;;5114990;28;20491;-60
2021/12/18 04:51:37;;;;;;;10.67;2.30;;;3.40;99.90;;;;;;5116793;28;20445;-60
2021/12/18 04:54:04;;;;;;;4.77;1.90;;;3.30;99.90;;;;;;5116613;28;20556;-60
2021/12/18 04:56:31;;;;;;;9.13;2.80;;;3.60;99.90;;;;;;5116277;28;20619;-60
2021/12/18 04:58:58;;;;;;;3.70;1.63;;;3.70;99.90;;;;;;5116727;28;20535;-60
2021/12/18 05:01:25;;;;;;;7.73;3.10;;;3.70;99.90;;;;;;5114218;28;20961;-60
2021/12/18 05:03:52;;;;;;;8.03;2.37;;;3.60;99.90;;;;;;5115602;28;20488;-60
2021/12/18 05:06:19;;;;;;;2.67;1.20;;;3.70;99.90;;;;;;5114728;28;20423;-60
2021/12/18 05:08:47;;;;;;;7.97;3.33;;;3.50;99.90;;;;;;5114646;28;20543;-60
2021/12/18 05:11:14;;;;;;;6.30;2.00;;;3.50;99.90;;;;;;5114128;28;20411;-59
2021/12/18 05:13:41;;;;;;;9.50;2.67;;;3.30;99.90;;;;;;5113852;28;20543;-60
2021/12/18 05:16:08;;;;;;;5.60;2.07;;;3.30;99.90;;;;;;5113800;28;20531;-60
2021/12/18 05:18:35;;;;;;;6.03;1.90;;;3.20;99.90;;;;;;5113488;28;20452;-60
2021/12/18 05:21:02;;;;;;;4.97;1.90;;;3.10;99.90;;;;;;5114345;28;20492;-59
2021/12/18 05:23:29;;;;;;;6.13;1.30;;;3.10;99.90;;;;;;5114353;28;20528;-60
2021/12/18 05:25:57;;;;;;;7.30;2.30;;;3.10;99.90;;;;;;5113946;28;20797;-60
2021/12/18 05:28:24;;;;;;;5.53;2.17;;;3.00;99.90;;;;;;5116138;28;20522;-60
2021/12/18 05:30:51;;;;;;;4.17;2.33;;;2.90;99.90;;;;;;5115309;28;20574;-60
2021/12/18 05:33:17;;;;;;;4.13;1.77;;;2.80;99.90;;;;;;5116240;28;20521;-60
2021/12/18 05:35:44;;;;;;;3.30;1.40;;;2.70;99.90;;;;;;5116010;28;20545;-60
2021/12/18 05:38:11;;;;;;;6.00;1.67;;;2.90;99.90;;;;;;5116441;28;20513;-60
2021/12/18 05:40:39;;;;;;;7.27;1.63;;;2.90;99.90;;;;;;5116225;28;20501;-60
2021/12/18 05:43:08;;;;;;;4.17;1.47;;;2.90;99.90;;;;;;5114774;28;20441;-59
2021/12/18 05:45:36;;;;;;;8.10;2.53;;;2.90;99.90;;;;;;5114922;28;20518;-60
2021/12/18 05:48:04;;;;;;;7.30;2.53;;;2.70;99.90;;;;;;5115263;28;20531;-59
2021/12/18 05:50:33;;;;;;;4.73;2.50;;;2.80;99.90;;;;;;5115207;28;20766;-60
2021/12/18 05:53:03;;;;;;;3.90;1.80;;;2.90;99.90;;;;;;5115323;28;20559;-59
2021/12/18 05:55:31;;;;;;;5.93;1.97;;;3.00;99.90;;;;;;5115488;28;20462;-60
2021/12/18 05:57:58;;;;;;;5.40;2.00;;;3.00;99.90;;;;;;5115093;28;20427;-60
2021/12/18 06:00:26;;;;;;;4.60;1.93;;;3.00;99.90;;;;;;5119024;28;20515;-60
2021/12/18 06:02:53;;;;;;;7.87;2.30;;;3.20;99.90;;;;;;5118356;28;20476;-60
2021/12/18 06:05:20;;;;;;;3.83;1.73;;;3.20;99.90;;;;;;5119405;28;20489;-60
2021/12/18 06:07:55;;;;;;;8.97;2.17;;;3.20;99.90;;;;;;5117379;28;20551;-59
2021/12/18 06:10:24;;;;;;;5.97;2.53;;;3.30;99.90;;;;;;5119373;28;20476;-60
2021/12/18 06:12:51;;;;;;;6.30;1.80;;;3.30;99.90;;;;;;5118519;28;20529;-59
2021/12/18 06:15:18;;;;;;;4.07;1.40;;;3.20;99.90;;;;;;5117033;28;20547;-58
2021/12/18 06:17:46;;;;;;;9.17;2.23;;;3.20;99.90;;;;;;5116464;28;20517;-58
2021/12/18 06:20:13;;;;;;;6.90;1.80;;;3.20;99.90;;;;;;5116848;28;20823;-60
2021/12/18 06:22:40;;;;;;;5.73;2.10;;;3.30;99.90;;;;;;5116594;28;20579;-59
2021/12/18 06:25:08;;;;;;;2.47;1.03;;;3.30;99.90;;;;;;5117154;28;20420;-60
2021/12/18 06:27:35;;;;;;;7.40;2.37;;;3.30;99.90;;;;;;5118156;28;20518;-61
2021/12/18 06:30:02;;;;;;;7.10;2.20;;;3.40;99.90;;;;;;5119560;28;20847;-60
2021/12/18 06:32:29;;;;;;;7.07;3.03;;;3.50;99.90;;;;;;5119310;28;20861;-59
2021/12/18 06:34:58;;;;;;;6.03;2.57;;;3.30;99.90;;;;;;5119628;28;20455;-61
2021/12/18 06:37:25;;;;;;;5.10;2.37;;;3.20;99.90;;;;;;5119124;28;20531;-60
2021/12/18 06:39:52;;;;;;;6.40;2.30;;;3.10;99.90;;;;;;5118643;28;20407;-60
2021/12/18 06:42:19;;;;;;;4.63;1.47;;;3.20;99.90;;;;;;5117697;28;20484;-60
2021/12/18 06:44:46;;;;;;;5.63;1.83;;;3.30;99.90;;;;;;5117761;28;20506;-60
2021/12/18 06:47:13;;;;;;;5.90;1.30;;;3.20;99.90;;;;;;5117855;28;20520;-60
2021/12/18 06:49:40;;;;;;;3.87;1.40;;;3.10;99.90;;;;;;5117462;28;20480;-61
2021/12/18 06:52:08;;;;;;;5.47;1.73;;;3.00;99.90;;;;;;5118547;28;20539;-60
2021/12/18 06:54:35;;;;;;;4.73;1.83;;;2.80;99.90;;;;;;5118641;28;20525;-61
2021/12/18 06:57:03;;;;;;;4.20;1.50;;;2.80;99.90;;;;;;5118455;28;20536;-60
2021/12/18 06:59:30;;;;;;;30.90;18.87;;;3.00;99.90;;;;;;5118504;28;21043;-61
2021/12/18 07:01:57;;;;;;;9.57;2.60;;;3.20;99.90;;;;;;5126725;27;20483;-60
2021/12/18 07:04:25;;;;;;;5.57;2.27;;;3.40;99.90;;;;;;5138412;27;20589;-61
2021/12/18 07:06:53;;;;;;;3.80;1.20;;;4.00;99.90;;;;;;5126693;27;20850;-61
2021/12/18 07:09:21;;;;;;;4.87;1.30;;;4.20;99.90;;;;;;5137764;27;20512;-61
2021/12/18 07:11:48;;;;;;;5.23;1.40;;;4.70;99.90;;;;;;5137432;27;20824;-60
2021/12/18 07:14:15;;;;;;;7.10;1.20;;;4.60;99.90;;;;;;5131332;27;20450;-61
2021/12/18 07:16:42;;;;;;;5.03;1.03;;;4.40;99.90;;;;;;5127571;27;20487;-62
2021/12/18 07:19:09;;;;;;;2.87;1.20;;;4.30;99.90;;;;;;5138534;27;20457;-61
2021/12/18 07:21:35;;;;;;;3.40;1.23;;;4.10;99.90;;;;;;5138511;27;20518;-61
2021/12/18 07:24:02;;;;;;;5.50;1.20;;;3.80;99.90;;;;;;5138510;27;20799;-61
2021/12/18 07:26:32;;;;;;;1.97;1.00;;;3.60;99.90;;;;;;5138110;27;20516;-61
2021/12/18 07:28:59;;;;;;;2.20;0.90;;;3.90;99.90;;;;;;5137745;27;20909;-61
2021/12/18 07:31:26;;;;;;;4.67;1.10;;;3.90;99.90;;;;;;5136796;27;20617;-61
2021/12/18 07:33:53;;;;;;;6.40;1.53;;;4.00;99.90;;;;;;5137388;27;20546;-61
2021/12/18 07:36:20;;;;;;;3.33;1.37;;;3.80;99.90;;;;;;5138519;27;20523;-60
2021/12/18 07:38:47;;;;;;;3.60;1.30;;;3.60;99.90;;;;;;5138289;27;20494;-61
2021/12/18 07:41:14;;;;;;;6.90;1.53;;;3.80;99.90;;;;;;5137827;27;20927;-61
2021/12/18 07:43:43;;;;;;;2.17;0.90;;;3.60;99.90;;;;;;5138228;27;20534;-60
2021/12/18 07:46:10;;;;;;;3.73;1.20;;;3.60;99.90;;;;;;5137250;27;20523;-60
2021/12/18 07:48:36;;;;;;;2.27;1.10;;;3.50;99.90;;;;;;5137107;27;20523;-61
2021/12/18 07:51:03;;;;;;;2.30;1.10;;;3.50;99.90;;;;;;5137235;27;20843;-61
2021/12/18 07:53:30;;;;;;;6.77;1.87;;;3.50;99.90;;;;;;5137109;27;20539;-63
2021/12/18 07:55:57;;;;;;;6.40;2.40;;;3.80;99.90;;;;;;5137399;27;20946;-61
2021/12/18 07:58:24;;;;;;;5.90;2.53;;;4.10;99.90;;;;;;5136096;27;20444;-59
2021/12/18 08:00:53;;;;;;;3.33;0.73;;;4.10;99.90;;;;;;5135790;27;20432;-59
2021/12/18 08:03:20;;;;;;;4.17;1.17;;;4.20;99.90;;;;;;5135527;27;20546;-59
2021/12/18 08:05:47;;;;;;;6.23;1.30;;;4.50;99.90;;;;;;5135465;27;20440;-60
2021/12/18 08:08:13;;;;;;;5.50;1.00;;;4.70;99.90;;;;;;5134796;27;20853;-60
2021/12/18 08:10:40;;;;;;;4.40;1.17;;;4.50;99.90;;;;;;5135502;27;20866;-60
2021/12/18 08:13:07;;;;;;;4.97;1.00;;;4.60;99.90;;;;;;5136185;27;20479;-59
2021/12/18 08:15:34;;;;;;;2.53;1.20;;;4.60;99.90;;;;;;5136342;27;20535;-60
2021/12/18 08:18:06;;;;;;;2.47;1.20;;;4.80;99.90;;;;;;5135819;27;20531;-61
2021/12/18 08:20:33;;;;;;;3.50;1.20;;;4.90;99.90;;;;;;5135525;27;20475;-60
2021/12/18 08:23:01;;;;;;;3.40;1.10;;;5.00;99.90;;;;;;5135287;27;20464;-60
2021/12/18 08:25:28;;;;;;;5.37;2.03;;;5.00;99.90;;;;;;5118630;27;20195;-59
2021/12/18 08:27:56;;;;;;;3.80;1.13;;;5.10;99.90;;;;;;5118701;27;20440;-60
2021/12/18 08:30:24;;;;;;;3.13;1.03;;;5.10;99.90;;;;;;5136163;27;20483;-60
2021/12/18 08:32:50;;;;;;;3.77;1.10;;;5.00;99.90;;;;;;5121448;27;20547;-59
2021/12/18 08:35:19;;;;;;;2.73;1.00;;;4.70;99.90;;;;;;5127584;27;20527;-59
2021/12/18 08:37:46;;;;;;;6.07;1.33;;;4.60;99.90;;;;;;5115729;27;20456;-59
2021/12/18 08:40:14;;;;;;;3.87;1.53;;;4.80;99.90;;;;;;5126610;27;20521;-59
2021/12/18 08:42:41;;;;;;;4.37;1.60;;;5.10;99.90;;;;;;5111678;28;20914;-59
2021/12/18 08:45:12;;;;;;;4.80;2.50;;;5.20;99.90;;;;;;5112113;28;20900;-59
2021/12/18 08:47:39;;;;;;;2.20;0.93;;;5.10;99.90;;;;;;5111462;28;20449;-60
2021/12/18 08:50:09;;;;;;;11.50;4.80;;;5.30;99.90;;;;;;5114900;28;20564;-59
2021/12/18 08:52:37;;;;;;;4.47;1.40;;;4.90;99.90;;;;;;5115674;28;20459;-60
2021/12/18 08:55:06;;;;;;;3.47;1.83;;;4.60;99.90;;;;;;5116874;27;20436;-59
2021/12/18 08:57:34;;;;;;;3.13;1.20;;;4.30;99.90;;;;;;5132001;27;20532;-60
2021/12/18 09:00:00;;;;;;;8.47;1.67;;;4.20;99.90;;;;;;5116816;27;20492;-59
2021/12/18 09:02:27;;;;;;;3.07;0.90;;;4.20;99.90;;;;;;5124228;27;20468;-60
2021/12/18 09:04:54;;;;;;;8.70;1.30;;;4.30;99.90;;;;;;5111929;28;20474;-60
2021/12/18 09:07:22;;;;;;;2.30;1.50;;;4.30;99.90;;;;;;5110950;28;20771;-60
2021/12/18 09:09:52;;;;;;;3.90;1.37;;;4.50;99.90;;;;;;5113082;28;20449;-60
2021/12/18 09:12:19;;;;;;;6.77;1.20;;;4.50;99.90;;;;;;5113950;28;20480;-59
2021/12/18 09:14:46;;;;;;;2.53;1.60;;;4.70;99.90;;;;;;5113986;28;20989;-60
2021/12/18 09:17:15;;;;;;;4.93;1.63;;;5.00;99.90;;;;;;5127547;27;20839;-60
2021/12/18 09:19:45;;;;;;;6.80;1.37;;;4.90;99.90;;;;;;5132172;27;20458;-58
2021/12/18 09:22:12;;;;;;;8.00;1.47;;;5.00;99.90;;;;;;5127074;27;20461;-58
2021/12/18 09:24:40;;;;;;;9.07;2.13;;;4.90;99.90;;;;;;5112467;28;20469;-58
2021/12/18 09:27:10;;;;;;;5.37;1.53;;;4.60;99.90;;;;;;5114313;28;20445;-59
2021/12/18 09:29:40;;;;;;;4.90;2.07;;;4.50;99.90;;;;;;5112356;28;20474;-59
2021/12/18 09:32:07;;;;;;;4.50;1.63;;;4.60;99.90;;;;;;5117550;28;20510;-59
2021/12/18 09:34:35;;;;;;;4.27;1.40;;;4.60;99.90;;;;;;5130130;27;20463;-59
2021/12/18 09:37:02;;;;;;;3.40;1.10;;;4.70;99.90;;;;;;5131415;28;20678;-59
2021/12/18 09:39:29;;;;;;;4.37;1.43;;;4.80;99.90;;;;;;5132257;28;20909;-59
2021/12/18 09:41:56;;;;;;;7.83;3.60;;;4.70;99.90;;;;;;5116788;28;20530;-59
2021/12/18 09:44:25;;;;;;;7.67;1.10;;;4.50;99.90;;;;;;5125177;28;20531;-58
2021/12/18 09:46:53;;;;;;;7.37;1.93;;;4.80;99.90;;;;;;5123249;27;20544;-58
2021/12/18 09:49:21;;;;;;;5.57;1.13;;;4.80;99.90;;;;;;5132331;27;20447;-58
2021/12/18 09:51:48;;;;;;;5.33;1.33;;;4.50;99.90;;;;;;5113562;28;20673;-59
2021/12/18 09:54:19;;;;;;;4.20;1.40;;;4.10;99.90;;;;;;5113181;28;20452;-59
2021/12/18 09:56:46;;;;;;;4.50;1.50;;;4.00;99.90;;;;;;5111936;28;20467;-58
2021/12/18 09:59:14;;;;;;;4.03;1.30;;;4.00;99.90;;;;;;5111918;28;20419;-59
2021/12/18 10:01:46;;;;;;;5.80;1.17;;;4.20;99.90;;;;;;5111699;28;20504;-59
2021/12/18 10:04:26;;;;;;;3.73;1.30;;;4.20;99.90;;;;;;5111118;28;20445;-59
2021/12/18 10:06:56;;;;;;;5.00;2.15;;;4.30;99.90;;;;;;5111172;28;20439;-58
2021/12/18 10:09:35;;;;;;;6.67;1.77;;;4.30;99.90;;;;;;5113242;28;20613;-59
2021/12/18 10:12:05;;;;;;;7.53;1.20;;;4.00;99.90;;;;;;5118281;27;20769;-58
2021/12/18 10:14:36;;;;;;;4.43;1.33;;;3.90;99.90;;;;;;5124644;28;20913;-58
2021/12/18 10:17:06;;;;;;;2.50;0.80;;;3.80;99.90;;;;;;5126633;28;20448;-59
2021/12/18 10:19:36;;;;;;;3.73;1.40;;;3.80;99.90;;;;;;5134381;28;20524;-60
2021/12/18 10:22:06;;;;;;;4.60;1.30;;;4.00;99.90;;;;;;5133049;28;20516;-60
2021/12/18 10:24:42;;;;;;;4.00;1.00;;;4.10;99.90;;;;;;5132817;28;20770;-60
2021/12/18 10:27:33;;;;;;;2.10;0.80;;;4.50;99.90;;;;;;5119074;28;20494;-58
2021/12/18 10:30:19;;;;;;;3.83;1.23;;;4.90;99.90;;;;;;5115878;28;20741;-58
2021/12/18 10:33:02;;;;;;;4.00;1.73;;;4.90;99.90;;;;;;5130461;27;20455;-59
2021/12/18 10:35:44;;;;;;;4.87;1.60;;;4.60;99.90;;;;;;5130481;27;20475;-59
2021/12/18 10:38:29;;;;;;;3.17;1.20;;;4.60;99.90;;;;;;5124971;27;20924;-59
2021/12/18 10:40:56;;;;;;;3.70;1.80;;;4.60;99.90;;;;;;5127322;27;20440;-59
2021/12/18 10:43:26;;;;;;;3.50;1.17;;;4.60;99.90;;;;;;5105665;28;20517;-59
2021/12/18 10:45:53;;;;;;;5.20;1.20;;;4.50;99.90;;;;;;5117868;27;20806;-59
2021/12/18 10:48:21;;;;;;;2.30;1.00;;;4.40;99.90;;;;;;5134733;27;20867;-60
2021/12/18 10:50:59;;;;;;;3.40;1.77;;;4.30;99.90;;;;;;5125826;27;20510;-59
2021/12/18 10:53:32;;;;;;;4.30;1.10;;;4.30;99.90;;;;;;5130273;27;20451;-59
2021/12/18 10:56:06;;;;;;;2.53;1.10;;;4.20;99.90;;;;;;5129508;27;20916;-59
2021/12/18 10:58:35;;;;;;;4.00;1.10;;;4.60;99.90;;;;;;5128004;27;20451;-60
2021/12/18 11:01:04;;;;;;;2.80;1.20;;;4.90;99.90;;;;;;5136296;27;20526;-60
2021/12/18 11:03:38;;;;;;;4.63;1.30;;;5.10;99.90;;;;;;5135221;27;20460;-60
2021/12/18 11:06:22;;;;;;;2.67;1.30;;;5.10;99.90;;;;;;5133901;27;20451;-60
2021/12/18 11:09:06;;;;;;;2.63;1.40;;;4.80;99.90;;;;;;5115700;28;20730;-60
2021/12/18 11:14:39;;;;;;;3.03;1.10;;;4.70;99.90;;;;;;5136164;27;20423;-59
2021/12/18 11:17:10;;;;;;;3.40;0.90;;;4.70;99.90;;;;;;5137673;27;20916;-59
2021/12/18 11:19:43;;;;;;;5.10;1.43;;;4.60;99.90;;;;;;5136668;27;20910;-59
2021/12/18 11:22:12;;;;;;;5.30;1.90;;;4.50;99.90;;;;;;5134252;27;20498;-60
2021/12/18 11:24:44;;;;;;;2.80;1.10;;;4.30;99.90;;;;;;5133530;27;20443;-60
2021/12/18 11:27:14;;;;;;;4.77;1.40;;;4.40;99.90;;;;;;5132668;27;20460;-58
2021/12/18 11:29:46;;;;;;;8.00;1.10;;;4.40;99.90;;;;;;5132805;27;20503;-60
2021/12/18 11:32:16;;;;;;;4.90;1.10;;;4.30;99.90;;;;;;5132511;27;20520;-59
2021/12/18 11:34:48;;;;;;;2.90;1.23;;;4.50;99.90;;;;;;5135994;27;20527;-60
2021/12/18 11:37:17;;;;;;;3.67;1.50;;;4.50;99.90;;;;;;5135683;27;20475;-58
2021/12/18 11:39:49;;;;;;;4.90;1.07;;;4.40;99.90;;;;;;5132289;27;20463;-60
2021/12/18 11:42:19;;;;;;;2.43;1.10;;;4.40;99.90;;;;;;5135882;27;20521;-59
2021/12/18 11:44:54;;;;;;;3.03;1.10;;;4.50;99.90;;;;;;5144385;27;20439;-60
2021/12/18 11:47:42;;;;;;;3.83;1.50;;;4.60;99.90;;;;;;5128476;27;20552;-59
2021/12/18 11:50:26;;;;;;;10.40;5.73;;;4.50;99.90;;;;;;5136900;27;20466;-59
2021/12/18 11:53:05;;;;;;;5.20;1.60;;;4.50;99.90;;;;;;5131678;27;20449;-59
2021/12/18 11:56:00;;;;;;;2.70;1.10;;;4.40;99.90;;;;;;5132832;27;20485;-60
2021/12/18 11:58:32;;;;;;;4.80;1.10;;;4.40;99.90;;;;;;5130963;27;20828;-57
2021/12/18 12:01:05;;;;;;;2.27;0.93;;;4.30;99.90;;;;;;5142488;27;20471;-59
2021/12/18 12:03:36;;;;;;;3.03;1.10;;;4.20;99.90;;;;;;5131221;27;20463;-59
2021/12/18 12:06:28;;;;;;;2.40;0.90;;;4.10;99.90;;;;;;5135689;27;20741;-59
2021/12/18 12:09:23;;;;;;;2.83;1.30;;;4.20;99.90;;;;;;5130417;27;20546;-60
2021/12/18 12:11:58;;;;;;;2.97;0.90;;;4.20;99.90;;;;;;5132574;27;20463;-59
2021/12/18 12:14:27;;;;;;;4.20;1.30;;;4.20;99.90;;;;;;5136803;27;20447;-59
2021/12/18 12:17:18;;;;;;;3.67;1.37;;;4.20;99.90;;;;;;5130949;27;20747;-59
2021/12/18 12:19:52;;;;;;;5.07;1.90;;;4.40;99.90;;;;;;5127262;27;20554;-59
2021/12/18 12:22:58;;;;;;;3.20;1.40;;;4.70;99.90;;;;;;5115583;27;20516;-59
2021/12/18 12:25:50;;;;;;;5.15;1.92;;;4.90;99.90;;;;;;5131826;27;20894;-59
2021/12/18 12:28:29;;;;;;;3.70;1.77;;;4.70;99.90;;;;;;5132314;27;20194;-60
2021/12/18 12:31:14;;;;;;;5.10;1.50;;;4.60;99.90;;;;;;5123058;27;20760;-59
2021/12/18 12:33:49;;;;;;;2.33;1.27;;;4.60;99.90;;;;;;5127055;27;20890;-59
2021/12/18 12:36:27;;;;;;;2.30;1.10;;;4.80;99.90;;;;;;5131183;27;20451;-60
2021/12/18 12:39:07;;;;;;;6.67;2.03;;;4.80;99.90;;;;;;5134324;27;20574;-59
2021/12/18 12:41:52;;;;;;;3.07;1.20;;;4.80;99.90;;;;;;5131749;27;20501;-59
2021/12/18 12:47:26;;;;;;;7.83;2.40;;;4.40;99.90;;;;;;5132680;27;20794;-59
2021/12/18 12:50:03;;;;;;;3.43;1.33;;;4.40;99.90;;;;;;5132168;27;20466;-58
2021/12/18 12:52:51;;;;;;;3.33;1.57;;;4.50;99.90;;;;;;5134661;27;20809;-59
2021/12/18 12:55:39;;;;;;;3.47;1.60;;;4.60;99.90;;;;;;5135499;27;20890;-59
2021/12/18 12:58:17;;;;;;;4.10;1.30;;;4.50;99.90;;;;;;5120658;27;20891;-59
2021/12/18 13:00:59;;;;;;;4.60;1.30;;;4.70;99.90;;;;;;5133913;27;20760;-59
2021/12/18 13:03:46;;;;;;;2.83;1.10;;;4.60;99.90;;;;;;5130745;27;20468;-58
2021/12/18 13:06:22;;;;;;;3.03;1.70;;;4.60;99.90;;;;;;5125687;27;20769;-58
2021/12/18 13:08:58;;;;;;;4.23;1.67;;;4.70;99.90;;;;;;5131186;27;20854;-59
2021/12/18 13:11:29;;;;;;;6.80;2.53;;;4.70;99.90;;;;;;5128929;27;20475;-58
2021/12/18 13:13:56;;;;;;;3.33;1.13;;;4.70;99.90;;;;;;5132972;27;20897;-58
2021/12/18 13:16:28;;;;;;;3.37;1.73;;;4.50;99.90;;;;;;5132345;27;20956;-59
2021/12/18 13:18:58;;;;;;;3.70;1.73;;;4.30;99.90;;;;;;5125942;27;20754;-59
2021/12/18 13:21:36;;;;;;;1.97;1.10;;;4.60;99.90;;;;;;5132520;27;20475;-59
2021/12/18 13:24:06;;;;;;;2.60;1.13;;;4.70;99.90;;;;;;5130772;27;20522;-59
2021/12/18 13:29:28;;;;;;;6.57;1.17;;;5.20;99.90;;;;;;5105999;27;20444;-58
2021/12/18 13:31:58;;;;;;;3.37;1.20;;;5.00;99.90;;;;;;5130022;27;20469;-59
2021/12/18 13:34:32;;;;;;;3.10;1.57;;;5.10;99.90;;;;;;5130461;28;20452;-59
2021/12/18 13:37:06;;;;;;;5.50;2.03;;;5.20;99.90;;;;;;5130128;27;20535;-59
2021/12/18 13:42:23;;;;;;;5.57;1.40;;;5.50;99.90;;;;;;5117336;27;20448;-60
2021/12/18 13:45:02;;;;;;;3.73;1.50;;;5.50;99.90;;;;;;5128480;27;20439;-59
2021/12/18 13:47:41;;;;;;;3.73;1.47;;;5.60;99.90;;;;;;5128372;27;20444;-59
2021/12/18 13:50:14;;;;;;;6.20;1.23;;;5.80;99.90;;;;;;5127955;28;20459;-59
2021/12/18 13:52:46;;;;;;;3.70;1.57;;;5.90;99.90;;;;;;5124915;27;20540;-59
2021/12/18 13:55:31;;;;;;;4.53;1.27;;;5.80;99.90;;;;;;5129326;27;20472;-59
2021/12/18 13:58:05;;;;;;;3.13;1.13;;;5.60;99.90;;;;;;5127850;28;20422;-59